createdAt,value
2022-08-30T00:03:46.362Z,16.40
2022-08-30T00:08:48.386Z,16.35
2022-08-30T00:13:51.609Z,16.23
2022-08-30T00:18:53.414Z,16.26
2022-08-30T00:23:55.167Z,16.18
2022-08-30T00:28:56.059Z,16.26
2022-08-30T00:33:56.922Z,16.36
2022-08-30T00:38:57.723Z,16.26
2022-08-30T00:43:58.717Z,16.22
2022-08-30T00:49:05.832Z,16.14
2022-08-30T00:54:07.443Z,16.10
2022-08-30T00:59:09.605Z,16.15
2022-08-30T01:04:14.123Z,16.03
2022-08-30T01:09:15.668Z,15.94
2022-08-30T01:14:17.240Z,15.92
2022-08-30T01:19:55.026Z,15.91
2022-08-30T01:24:58.456Z,15.94
2022-08-30T01:30:00.891Z,15.77
2022-08-30T01:35:01.867Z,15.51
2022-08-30T01:40:04.183Z,15.50
2022-08-30T01:45:08.204Z,15.45
2022-08-30T01:50:09.997Z,15.43
2022-08-30T01:55:11.188Z,15.38
2022-08-30T02:00:13.086Z,15.35
2022-08-30T02:05:15.351Z,15.36
2022-08-30T02:10:19.612Z,15.43
2022-08-30T02:15:20.642Z,15.47
2022-08-30T02:20:21.524Z,15.50
2022-08-30T02:25:22.832Z,15.55
2022-08-30T02:30:23.894Z,15.43
2022-08-30T02:35:25.038Z,15.31
2022-08-30T02:40:26.090Z,15.27
2022-08-30T02:45:28.192Z,15.37
2022-08-30T02:50:30.479Z,15.47
2022-08-30T02:55:31.328Z,15.43
2022-08-30T03:00:32.171Z,15.19
2022-08-30T03:05:33.440Z,15.22
2022-08-30T03:10:34.763Z,15.25
2022-08-30T03:15:38.609Z,15.27
2022-08-30T03:20:41.469Z,15.33
2022-08-30T03:25:45.285Z,15.38
2022-08-30T03:30:47.299Z,15.26
2022-08-30T03:35:51.100Z,15.12
2022-08-30T03:40:52.007Z,15.07
2022-08-30T03:45:53.416Z,15.03
2022-08-30T03:50:54.513Z,15.13
2022-08-30T03:55:55.376Z,15.01
2022-08-30T04:00:58.252Z,14.99
2022-08-30T04:06:00.165Z,14.75
2022-08-30T04:11:01.794Z,14.80
2022-08-30T04:16:06.205Z,14.87
2022-08-30T04:21:13.891Z,14.75
2022-08-30T04:26:15.515Z,14.69
2022-08-30T04:31:18.141Z,14.66
2022-08-30T04:36:19.280Z,14.57
2022-08-30T04:41:22.013Z,14.67
2022-08-30T04:46:22.933Z,14.59
2022-08-30T04:51:24.072Z,14.64
2022-08-30T04:56:25.013Z,14.68
2022-08-30T05:01:28.853Z,14.70
2022-08-30T05:06:32.677Z,14.75
2022-08-30T05:11:33.828Z,15.17
2022-08-30T05:16:35.535Z,15.51
2022-08-30T05:21:36.518Z,15.57
2022-08-30T05:26:39.100Z,15.79
2022-08-30T05:31:40.046Z,15.99
2022-08-30T05:36:41.114Z,16.41
2022-08-30T05:41:41.897Z,16.73
2022-08-30T05:46:45.456Z,16.83
2022-08-30T05:51:47.098Z,16.60
2022-08-30T05:56:47.972Z,16.85
2022-08-30T06:01:49.076Z,17.07
2022-08-30T06:06:49.916Z,17.24
2022-08-30T06:11:50.749Z,17.58
2022-08-30T06:16:51.688Z,17.64
2022-08-30T06:21:52.541Z,17.79
2022-08-30T06:26:53.378Z,18.01
2022-08-30T06:31:57.086Z,18.11
2022-08-30T06:36:57.962Z,18.39
2022-08-30T06:41:58.978Z,18.79
2022-08-30T06:47:06.881Z,18.95
2022-08-30T06:52:07.714Z,19.10
2022-08-30T06:57:08.803Z,19.14
2022-08-30T07:02:09.934Z,19.41
2022-08-30T07:07:11.054Z,19.23
2022-08-30T07:12:13.217Z,19.45
2022-08-30T07:19:51.575Z,19.39
2022-08-30T07:24:52.434Z,19.92
2022-08-30T07:29:53.418Z,19.80
2022-08-30T07:34:54.971Z,20.16
2022-08-30T07:39:56.054Z,20.27
2022-08-30T07:44:57.107Z,20.35
2022-08-30T07:49:59.876Z,20.50
2022-08-30T07:55:01.054Z,20.42
2022-08-30T08:00:04.130Z,20.81
2022-08-30T08:05:17.021Z,20.66
2022-08-30T08:10:19.317Z,21.03
2022-08-30T08:15:20.142Z,21.02
2022-08-30T08:20:22.304Z,21.12
2022-08-30T08:25:23.601Z,21.31
2022-08-30T08:30:24.505Z,21.54
2022-08-30T08:35:25.735Z,21.72
2022-08-30T08:40:30.113Z,21.61
2022-08-30T08:46:30.371Z,21.84
2022-08-30T08:51:57.020Z,21.60
2022-08-30T08:56:58.961Z,21.81
2022-08-30T09:02:02.699Z,22.35
2022-08-30T09:07:11.517Z,22.71
2022-08-30T09:12:12.905Z,22.60
2022-08-30T09:17:16.406Z,22.70
2022-08-30T09:22:41.773Z,23.03
2022-08-30T09:27:45.432Z,23.24
2022-08-30T09:33:02.673Z,23.12
2022-08-30T09:38:08.076Z,23.34
2022-08-30T09:43:34.056Z,23.08
2022-08-30T09:48:43.212Z,23.34
2022-08-30T09:54:34.979Z,23.60
2022-08-30T09:59:56.940Z,23.56
2022-08-30T10:09:01.784Z,23.76
2022-08-30T10:14:28.696Z,23.70
2022-08-30T10:19:56.318Z,23.98
2022-08-30T10:25:16.082Z,23.72
2022-08-30T10:30:18.094Z,23.79
2022-08-30T10:35:38.635Z,24.13
2022-08-30T10:41:04.892Z,24.33
2022-08-30T10:46:14.217Z,24.39
2022-08-30T10:51:31.001Z,24.96
2022-08-30T10:56:34.960Z,25.91
2022-08-30T11:01:55.892Z,25.99
2022-08-30T11:07:46.607Z,25.27
2022-08-30T11:13:02.195Z,25.89
2022-08-30T11:18:14.114Z,26.91
2022-08-30T11:23:32.961Z,26.70
2022-08-30T11:29:31.994Z,26.80
2022-08-30T11:37:09.703Z,26.45
2022-08-30T11:42:56.678Z,26.08
2022-08-30T11:48:00.256Z,26.41
2022-08-30T11:53:15.810Z,26.67
2022-08-30T12:05:06.787Z,26.55
2022-08-30T12:10:23.701Z,26.55
2022-08-30T12:15:53.965Z,27.21
2022-08-30T12:21:35.321Z,26.76
2022-08-30T12:26:47.909Z,26.84
2022-08-30T12:32:21.239Z,27.20
2022-08-30T12:37:38.376Z,26.77
2022-08-30T12:42:53.334Z,26.54
2022-08-30T12:48:02.798Z,26.97
2022-08-30T12:53:13.535Z,27.49
2022-08-30T12:58:15.702Z,27.43
2022-08-30T13:03:35.986Z,27.64
2022-08-30T13:08:59.735Z,27.54
2022-08-30T13:20:49.164Z,26.07
2022-08-30T13:25:52.782Z,27.46
2022-08-30T13:30:54.398Z,26.98
2022-08-30T13:35:55.694Z,27.84
2022-08-30T13:40:56.661Z,27.64
2022-08-30T13:45:57.973Z,27.89
2022-08-30T13:50:59.631Z,28.03
2022-08-30T13:56:02.762Z,27.47
2022-08-30T14:01:06.332Z,27.29
2022-08-30T14:06:32.243Z,27.23
2022-08-30T14:11:34.778Z,26.88
2022-08-30T14:16:40.472Z,26.93
2022-08-30T14:21:49.240Z,27.67
2022-08-30T14:26:50.703Z,28.02
2022-08-30T14:31:52.249Z,27.66
2022-08-30T14:36:54.798Z,27.67
2022-08-30T14:41:55.889Z,27.22
2022-08-30T14:46:57.964Z,27.23
2022-08-30T14:52:02.668Z,26.41
2022-08-30T14:57:03.574Z,26.46
2022-08-30T15:02:04.681Z,26.59
2022-08-30T15:07:05.532Z,26.42
2022-08-30T15:12:06.474Z,26.18
2022-08-30T15:17:08.898Z,26.11
2022-08-30T15:22:09.788Z,26.04
2022-08-30T15:27:10.836Z,25.86
2022-08-30T15:32:11.725Z,25.74
2022-08-30T15:37:12.584Z,25.92
2022-08-30T15:42:17.662Z,25.97
2022-08-30T15:47:22.340Z,25.76
2022-08-30T15:52:26.630Z,25.68
2022-08-30T15:57:27.928Z,25.58
2022-08-30T16:02:29.281Z,25.54
2022-08-30T16:07:30.276Z,25.34
2022-08-30T16:12:31.141Z,25.48
2022-08-30T16:17:32.178Z,25.40
2022-08-30T16:22:33.530Z,25.37
2022-08-30T16:27:34.625Z,25.36
2022-08-30T16:32:36.248Z,25.29
2022-08-30T16:37:37.145Z,25.36
2022-08-30T16:42:38.364Z,25.17
2022-08-30T16:47:39.586Z,25.19
2022-08-30T16:52:44.146Z,25.11
2022-08-30T16:57:46.597Z,24.97
2022-08-30T17:02:54.090Z,25.06
2022-08-30T17:07:55.425Z,24.94
2022-08-30T17:12:56.270Z,24.78
2022-08-30T17:17:57.419Z,24.61
2022-08-30T17:22:58.909Z,24.63
2022-08-30T17:28:03.369Z,24.73
2022-08-30T17:33:04.575Z,24.61
2022-08-30T17:38:05.472Z,24.52
2022-08-30T17:43:09.999Z,24.44
2022-08-30T17:48:11.097Z,24.36
2022-08-30T17:53:12.015Z,24.41
2022-08-30T17:58:13.684Z,24.29
2022-08-30T18:03:14.671Z,24.22
2022-08-30T18:08:16.696Z,24.21
2022-08-30T18:13:17.754Z,24.06
2022-08-30T18:18:19.500Z,23.91
2022-08-30T18:23:24.163Z,23.72
2022-08-30T18:28:25.616Z,23.61
2022-08-30T18:33:27.519Z,23.47
2022-08-30T18:38:29.635Z,23.22
2022-08-30T18:43:31.093Z,23.16
2022-08-30T18:48:33.599Z,23.09
2022-08-30T18:53:36.014Z,22.90
2022-08-30T18:58:39.837Z,22.66
2022-08-30T19:03:46.171Z,22.46
2022-08-30T19:08:49.154Z,22.37
2022-08-30T19:13:50.193Z,22.42
2022-08-30T19:18:52.594Z,22.25
2022-08-30T19:23:55.218Z,22.17
2022-08-30T19:28:56.348Z,22.09
2022-08-30T19:33:57.189Z,22.03
2022-08-30T19:38:58.397Z,22.00
2022-08-30T19:44:02.254Z,21.98
2022-08-30T19:49:06.206Z,21.94
2022-08-30T19:54:07.794Z,21.94
2022-08-30T19:59:09.074Z,22.00
2022-08-30T20:04:12.712Z,22.02
2022-08-30T20:09:14.282Z,21.70
2022-08-30T20:14:15.984Z,21.38
2022-08-30T20:19:18.567Z,21.20
2022-08-30T20:24:22.777Z,21.40
2022-08-30T20:29:23.683Z,21.60
2022-08-30T20:34:26.950Z,21.73
2022-08-30T20:39:28.078Z,21.60
2022-08-30T20:44:29.436Z,21.54
2022-08-30T20:49:30.889Z,21.57
2022-08-30T20:54:31.743Z,21.46
2022-08-30T20:59:33.128Z,21.37
2022-08-30T21:04:37.822Z,21.37
2022-08-30T21:09:38.618Z,21.32
2022-08-30T21:14:39.487Z,21.27
2022-08-30T21:19:43.823Z,21.33
2022-08-30T21:24:45.444Z,21.28
2022-08-30T21:29:46.596Z,21.35
2022-08-30T21:35:06.004Z,21.18
2022-08-30T21:40:07.961Z,21.22
2022-08-30T21:45:10.006Z,21.21
2022-08-30T21:50:11.294Z,21.04
2022-08-30T21:55:12.192Z,21.04
2022-08-30T22:00:20.274Z,20.98
2022-08-30T22:05:21.092Z,21.02
2022-08-30T22:10:22.681Z,21.02
2022-08-30T22:15:23.568Z,20.87
2022-08-30T22:20:30.394Z,20.95
2022-08-30T22:25:31.653Z,20.96
2022-08-30T22:30:32.507Z,20.85
2022-08-30T22:35:36.479Z,20.80
2022-08-30T22:40:44.499Z,20.80
2022-08-30T22:45:45.580Z,20.72
2022-08-30T22:50:46.904Z,20.69
2022-08-30T22:55:47.736Z,20.62
2022-08-30T23:00:54.487Z,20.50
2022-08-30T23:05:56.125Z,20.55
2022-08-30T23:10:57.187Z,20.55
2022-08-30T23:16:02.119Z,20.49
2022-08-30T23:21:10.886Z,20.38
2022-08-30T23:26:30.076Z,20.27
2022-08-30T23:31:49.570Z,20.36
2022-08-30T23:37:09.088Z,20.30
2022-08-30T23:42:28.314Z,20.25
2022-08-30T23:47:47.599Z,20.23
2022-08-30T23:53:07.536Z,20.18
2022-08-30T23:58:27.108Z,20.15
